sensor_id;sensor_type;location;lat;lon;timestamp;P1;durP1;ratioP1;P2;durP2;ratioP2
4313;SDS011;2170;48.794;9.182;2023-08-20T00:00:57;13.53;;;12.53;;
4313;SDS011;2170;48.794;9.182;2023-08-20T00:03:29;12.60;;;11.50;;
4313;SDS011;2170;48.794;9.182;2023-08-20T00:05:58;13.30;;;12.10;;
4313;SDS011;2170;48.794;9.182;2023-08-20T00:08:30;13.43;;;12.20;;
4313;SDS011;2170;48.794;9.182;2023-08-20T00:11:02;13.17;;;11.87;;
4313;SDS011;2170;48.794;9.182;2023-08-20T00:13:36;13.37;;;12.10;;
4313;SDS011;2170;48.794;9.182;2023-08-20T00:19:04;12.80;;;11.50;;
4313;SDS011;2170;48.794;9.182;2023-08-20T00:21:39;12.97;;;11.87;;
4313;SDS011;2170;48.794;9.182;2023-08-20T00:24:15;12.80;;;11.90;;
4313;SDS011;2170;48.794;9.182;2023-08-20T00:26:48;12.50;;;11.50;;
4313;SDS011;2170;48.794;9.182;2023-08-20T00:29:19;12.93;;;11.87;;
4313;SDS011;2170;48.794;9.182;2023-08-20T00:31:58;13.40;;;12.30;;
4313;SDS011;2170;48.794;9.182;2023-08-20T00:34:37;13.17;;;12.00;;
4313;SDS011;2170;48.794;9.182;2023-08-20T00:37:09;13.17;;;12.10;;
4313;SDS011;2170;48.794;9.182;2023-08-20T00:39:37;13.80;;;12.63;;
4313;SDS011;2170;48.794;9.182;2023-08-20T00:42:11;13.13;;;11.90;;
4313;SDS011;2170;48.794;9.182;2023-08-20T00:44:40;12.80;;;11.70;;
4313;SDS011;2170;48.794;9.182;2023-08-20T00:47:16;12.63;;;11.50;;
4313;SDS011;2170;48.794;9.182;2023-08-20T00:49:44;13.20;;;12.27;;
4313;SDS011;2170;48.794;9.182;2023-08-20T00:52:14;12.90;;;11.90;;
4313;SDS011;2170;48.794;9.182;2023-08-20T00:54:53;13.87;;;12.63;;
4313;SDS011;2170;48.794;9.182;2023-08-20T00:57:33;13.63;;;12.30;;
4313;SDS011;2170;48.794;9.182;2023-08-20T01:00:10;12.57;;;11.57;;
4313;SDS011;2170;48.794;9.182;2023-08-20T01:02:45;13.13;;;12.13;;
4313;SDS011;2170;48.794;9.182;2023-08-20T01:05:12;13.03;;;12.03;;
4313;SDS011;2170;48.794;9.182;2023-08-20T01:07:56;13.67;;;12.57;;
4313;SDS011;2170;48.794;9.182;2023-08-20T01:10:40;13.83;;;12.43;;
4313;SDS011;2170;48.794;9.182;2023-08-20T01:13:16;13.77;;;12.67;;
4313;SDS011;2170;48.794;9.182;2023-08-20T01:15:49;13.50;;;12.10;;
4313;SDS011;2170;48.794;9.182;2023-08-20T01:18:27;13.20;;;12.00;;
4313;SDS011;2170;48.794;9.182;2023-08-20T01:21:12;13.30;;;12.20;;
4313;SDS011;2170;48.794;9.182;2023-08-20T01:24:17;13.80;;;12.60;;
4313;SDS011;2170;48.794;9.182;2023-08-20T01:27:08;13.60;;;12.30;;
4313;SDS011;2170;48.794;9.182;2023-08-20T01:30:08;14.20;;;13.00;;
4313;SDS011;2170;48.794;9.182;2023-08-20T01:32:39;13.30;;;12.30;;
4313;SDS011;2170;48.794;9.182;2023-08-20T01:35:11;12.77;;;11.87;;
4313;SDS011;2170;48.794;9.182;2023-08-20T01:37:44;13.23;;;12.23;;
4313;SDS011;2170;48.794;9.182;2023-08-20T01:40:14;13.63;;;12.37;;
4313;SDS011;2170;48.794;9.182;2023-08-20T01:43:00;13.23;;;11.70;;
4313;SDS011;2170;48.794;9.182;2023-08-20T01:45:41;13.93;;;12.93;;
4313;SDS011;2170;48.794;9.182;2023-08-20T01:48:13;13.20;;;12.20;;
4313;SDS011;2170;48.794;9.182;2023-08-20T01:50:41;13.90;;;12.70;;
4313;SDS011;2170;48.794;9.182;2023-08-20T01:53:12;13.67;;;12.60;;
4313;SDS011;2170;48.794;9.182;2023-08-20T01:55:46;16.53;;;12.70;;
4313;SDS011;2170;48.794;9.182;2023-08-20T01:58:23;14.13;;;12.73;;
4313;SDS011;2170;48.794;9.182;2023-08-20T02:01:12;14.50;;;13.00;;
4313;SDS011;2170;48.794;9.182;2023-08-20T02:03:50;14.30;;;13.13;;
4313;SDS011;2170;48.794;9.182;2023-08-20T02:06:19;13.83;;;12.73;;
4313;SDS011;2170;48.794;9.182;2023-08-20T02:08:50;13.70;;;12.70;;
4313;SDS011;2170;48.794;9.182;2023-08-20T02:11:23;15.00;;;13.90;;
4313;SDS011;2170;48.794;9.182;2023-08-20T02:13:52;13.90;;;12.80;;
4313;SDS011;2170;48.794;9.182;2023-08-20T02:16:22;14.43;;;13.23;;
4313;SDS011;2170;48.794;9.182;2023-08-20T02:18:50;14.07;;;12.97;;
4313;SDS011;2170;48.794;9.182;2023-08-20T02:21:22;14.37;;;13.00;;
4313;SDS011;2170;48.794;9.182;2023-08-20T02:23:50;14.80;;;13.50;;
4313;SDS011;2170;48.794;9.182;2023-08-20T02:26:18;14.93;;;13.40;;
4313;SDS011;2170;48.794;9.182;2023-08-20T02:28:52;15.10;;;13.77;;
4313;SDS011;2170;48.794;9.182;2023-08-20T02:31:22;15.93;;;14.43;;
4313;SDS011;2170;48.794;9.182;2023-08-20T02:33:50;16.03;;;14.70;;
4313;SDS011;2170;48.794;9.182;2023-08-20T02:36:25;15.63;;;14.20;;
4313;SDS011;2170;48.794;9.182;2023-08-20T02:38:58;15.10;;;13.97;;
4313;SDS011;2170;48.794;9.182;2023-08-20T02:41:35;15.70;;;14.37;;
4313;SDS011;2170;48.794;9.182;2023-08-20T02:44:09;15.63;;;14.23;;
4313;SDS011;2170;48.794;9.182;2023-08-20T02:46:47;16.50;;;15.03;;
4313;SDS011;2170;48.794;9.182;2023-08-20T02:49:21;15.77;;;14.27;;
4313;SDS011;2170;48.794;9.182;2023-08-20T02:51:54;16.77;;;15.23;;
4313;SDS011;2170;48.794;9.182;2023-08-20T02:54:25;17.13;;;14.73;;
4313;SDS011;2170;48.794;9.182;2023-08-20T02:56:57;15.50;;;14.10;;
4313;SDS011;2170;48.794;9.182;2023-08-20T02:59:28;15.37;;;13.97;;
4313;SDS011;2170;48.794;9.182;2023-08-20T03:02:00;16.23;;;14.70;;
4313;SDS011;2170;48.794;9.182;2023-08-20T03:04:32;15.13;;;14.07;;
4313;SDS011;2170;48.794;9.182;2023-08-20T03:07:01;16.83;;;15.40;;
4313;SDS011;2170;48.794;9.182;2023-08-20T03:09:30;16.50;;;15.10;;
4313;SDS011;2170;48.794;9.182;2023-08-20T03:11:58;15.27;;;14.17;;
4313;SDS011;2170;48.794;9.182;2023-08-20T03:14:30;17.27;;;15.90;;
4313;SDS011;2170;48.794;9.182;2023-08-20T03:17:06;17.30;;;15.77;;
4313;SDS011;2170;48.794;9.182;2023-08-20T03:19:36;16.20;;;14.87;;
4313;SDS011;2170;48.794;9.182;2023-08-20T03:22:21;16.90;;;15.50;;
4313;SDS011;2170;48.794;9.182;2023-08-20T03:24:57;16.53;;;15.23;;
4313;SDS011;2170;48.794;9.182;2023-08-20T03:27:36;16.80;;;15.40;;
4313;SDS011;2170;48.794;9.182;2023-08-20T03:30:04;16.73;;;15.40;;
4313;SDS011;2170;48.794;9.182;2023-08-20T03:32:35;15.83;;;14.53;;
4313;SDS011;2170;48.794;9.182;2023-08-20T03:35:03;16.27;;;14.97;;
4313;SDS011;2170;48.794;9.182;2023-08-20T03:37:32;15.93;;;14.63;;
4313;SDS011;2170;48.794;9.182;2023-08-20T03:39:59;16.00;;;14.80;;
4313;SDS011;2170;48.794;9.182;2023-08-20T03:42:30;17.90;;;16.30;;
4313;SDS011;2170;48.794;9.182;2023-08-20T03:44:58;18.73;;;16.97;;
4313;SDS011;2170;48.794;9.182;2023-08-20T03:47:26;17.10;;;15.60;;
4313;SDS011;2170;48.794;9.182;2023-08-20T03:49:58;18.03;;;16.60;;
4313;SDS011;2170;48.794;9.182;2023-08-20T03:52:26;17.90;;;16.23;;
4313;SDS011;2170;48.794;9.182;2023-08-20T03:54:54;16.77;;;15.47;;
4313;SDS011;2170;48.794;9.182;2023-08-20T03:57:29;17.00;;;15.30;;
4313;SDS011;2170;48.794;9.182;2023-08-20T04:00:10;16.43;;;15.03;;
4313;SDS011;2170;48.794;9.182;2023-08-20T04:02:48;16.70;;;15.40;;
4313;SDS011;2170;48.794;9.182;2023-08-20T04:05:36;17.20;;;15.70;;
4313;SDS011;2170;48.794;9.182;2023-08-20T04:08:05;16.83;;;15.40;;
4313;SDS011;2170;48.794;9.182;2023-08-20T04:10:33;16.93;;;15.50;;
4313;SDS011;2170;48.794;9.182;2023-08-20T04:13:01;17.53;;;16.07;;
4313;SDS011;2170;48.794;9.182;2023-08-20T04:15:31;18.10;;;16.50;;
4313;SDS011;2170;48.794;9.182;2023-08-20T04:17:59;17.57;;;16.00;;
4313;SDS011;2170;48.794;9.182;2023-08-20T04:20:37;17.23;;;15.90;;
4313;SDS011;2170;48.794;9.182;2023-08-20T04:23:08;17.93;;;16.27;;
4313;SDS011;2170;48.794;9.182;2023-08-20T04:25:38;17.67;;;16.20;;
4313;SDS011;2170;48.794;9.182;2023-08-20T04:28:07;17.57;;;16.27;;
4313;SDS011;2170;48.794;9.182;2023-08-20T04:30:40;19.27;;;17.57;;
4313;SDS011;2170;48.794;9.182;2023-08-20T04:33:14;17.40;;;16.00;;
4313;SDS011;2170;48.794;9.182;2023-08-20T04:35:52;18.93;;;17.30;;
4313;SDS011;2170;48.794;9.182;2023-08-20T04:38:28;17.57;;;16.10;;
4313;SDS011;2170;48.794;9.182;2023-08-20T04:41:24;17.33;;;16.03;;
4313;SDS011;2170;48.794;9.182;2023-08-20T04:44:03;17.67;;;15.97;;
4313;SDS011;2170;48.794;9.182;2023-08-20T04:46:38;17.93;;;16.57;;
4313;SDS011;2170;48.794;9.182;2023-08-20T04:49:11;17.70;;;16.20;;
4313;SDS011;2170;48.794;9.182;2023-08-20T04:51:50;18.07;;;16.50;;
4313;SDS011;2170;48.794;9.182;2023-08-20T04:54:21;16.63;;;15.40;;
4313;SDS011;2170;48.794;9.182;2023-08-20T04:56:49;18.37;;;16.77;;
4313;SDS011;2170;48.794;9.182;2023-08-20T04:59:18;18.53;;;16.83;;
4313;SDS011;2170;48.794;9.182;2023-08-20T05:01:52;18.27;;;16.77;;
4313;SDS011;2170;48.794;9.182;2023-08-20T05:04:19;16.67;;;15.40;;
4313;SDS011;2170;48.794;9.182;2023-08-20T05:06:49;18.00;;;16.43;;
4313;SDS011;2170;48.794;9.182;2023-08-20T05:09:20;17.00;;;15.63;;
4313;SDS011;2170;48.794;9.182;2023-08-20T05:11:58;16.70;;;15.40;;
4313;SDS011;2170;48.794;9.182;2023-08-20T05:17:46;17.83;;;16.23;;
4313;SDS011;2170;48.794;9.182;2023-08-20T05:20:55;17.63;;;16.23;;
4313;SDS011;2170;48.794;9.182;2023-08-20T05:24:01;18.60;;;16.90;;
4313;SDS011;2170;48.794;9.182;2023-08-20T05:26:37;18.10;;;16.10;;
4313;SDS011;2170;48.794;9.182;2023-08-20T05:29:06;18.60;;;16.90;;
4313;SDS011;2170;48.794;9.182;2023-08-20T05:31:36;16.83;;;15.23;;
4313;SDS011;2170;48.794;9.182;2023-08-20T05:34:09;20.23;;;16.00;;
4313;SDS011;2170;48.794;9.182;2023-08-20T05:36:37;18.03;;;16.53;;
4313;SDS011;2170;48.794;9.182;2023-08-20T05:39:16;17.90;;;16.27;;
4313;SDS011;2170;48.794;9.182;2023-08-20T05:41:44;17.20;;;15.80;;
4313;SDS011;2170;48.794;9.182;2023-08-20T05:44:32;18.87;;;17.00;;
4313;SDS011;2170;48.794;9.182;2023-08-20T05:47:11;17.70;;;16.10;;
4313;SDS011;2170;48.794;9.182;2023-08-20T05:49:54;16.87;;;15.23;;
4313;SDS011;2170;48.794;9.182;2023-08-20T05:52:24;18.40;;;16.60;;
4313;SDS011;2170;48.794;9.182;2023-08-20T05:55:06;16.87;;;15.57;;
4313;SDS011;2170;48.794;9.182;2023-08-20T05:57:42;18.33;;;16.63;;
4313;SDS011;2170;48.794;9.182;2023-08-20T06:00:32;16.93;;;15.70;;
4313;SDS011;2170;48.794;9.182;2023-08-20T06:03:01;17.50;;;15.90;;
4313;SDS011;2170;48.794;9.182;2023-08-20T06:05:47;16.90;;;15.17;;
4313;SDS011;2170;48.794;9.182;2023-08-20T06:08:22;16.70;;;15.03;;
4313;SDS011;2170;48.794;9.182;2023-08-20T06:11:02;16.83;;;15.50;;
4313;SDS011;2170;48.794;9.182;2023-08-20T06:13:33;17.57;;;15.60;;
4313;SDS011;2170;48.794;9.182;2023-08-20T06:16:22;17.33;;;15.83;;
4313;SDS011;2170;48.794;9.182;2023-08-20T06:19:21;17.40;;;15.73;;
4313;SDS011;2170;48.794;9.182;2023-08-20T06:22:41;16.57;;;15.27;;
4313;SDS011;2170;48.794;9.182;2023-08-20T06:25:48;17.80;;;16.20;;
4313;SDS011;2170;48.794;9.182;2023-08-20T06:28:53;16.47;;;15.10;;
4313;SDS011;2170;48.794;9.182;2023-08-20T06:31:43;16.60;;;15.27;;
4313;SDS011;2170;48.794;9.182;2023-08-20T06:34:14;16.40;;;15.03;;
4313;SDS011;2170;48.794;9.182;2023-08-20T06:36:53;15.20;;;14.00;;
4313;SDS011;2170;48.794;9.182;2023-08-20T06:39:46;17.27;;;15.70;;
4313;SDS011;2170;48.794;9.182;2023-08-20T06:42:37;16.37;;;14.80;;
4313;SDS011;2170;48.794;9.182;2023-08-20T06:45:13;16.53;;;15.10;;
4313;SDS011;2170;48.794;9.182;2023-08-20T06:47:46;16.07;;;14.80;;
4313;SDS011;2170;48.794;9.182;2023-08-20T06:50:23;16.73;;;15.20;;
4313;SDS011;2170;48.794;9.182;2023-08-20T06:53:00;16.93;;;15.53;;
4313;SDS011;2170;48.794;9.182;2023-08-20T06:55:45;14.90;;;13.47;;
4313;SDS011;2170;48.794;9.182;2023-08-20T06:58:31;15.60;;;14.40;;
4313;SDS011;2170;48.794;9.182;2023-08-20T07:01:16;15.30;;;13.90;;
4313;SDS011;2170;48.794;9.182;2023-08-20T07:04:10;15.57;;;14.07;;
4313;SDS011;2170;48.794;9.182;2023-08-20T07:06:40;16.27;;;14.90;;
4313;SDS011;2170;48.794;9.182;2023-08-20T07:09:34;14.53;;;13.43;;
4313;SDS011;2170;48.794;9.182;2023-08-20T07:12:29;16.03;;;14.47;;
4313;SDS011;2170;48.794;9.182;2023-08-20T07:15:23;15.73;;;14.20;;
4313;SDS011;2170;48.794;9.182;2023-08-20T07:18:14;15.07;;;13.97;;
4313;SDS011;2170;48.794;9.182;2023-08-20T07:21:23;14.00;;;12.90;;
4313;SDS011;2170;48.794;9.182;2023-08-20T07:24:04;15.63;;;14.03;;
4313;SDS011;2170;48.794;9.182;2023-08-20T07:27:03;14.23;;;13.17;;
4313;SDS011;2170;48.794;9.182;2023-08-20T07:30:10;15.83;;;14.50;;
4313;SDS011;2170;48.794;9.182;2023-08-20T07:32:58;15.63;;;14.20;;
4313;SDS011;2170;48.794;9.182;2023-08-20T07:35:33;14.93;;;13.73;;
4313;SDS011;2170;48.794;9.182;2023-08-20T07:38:39;16.00;;;14.50;;
4313;SDS011;2170;48.794;9.182;2023-08-20T07:41:23;14.80;;;13.43;;
4313;SDS011;2170;48.794;9.182;2023-08-20T07:44:03;15.63;;;14.30;;
4313;SDS011;2170;48.794;9.182;2023-08-20T07:46:44;15.40;;;13.90;;
4313;SDS011;2170;48.794;9.182;2023-08-20T07:49:39;14.50;;;13.40;;
4313;SDS011;2170;48.794;9.182;2023-08-20T07:52:14;14.50;;;13.00;;
4313;SDS011;2170;48.794;9.182;2023-08-20T07:54:43;14.83;;;13.43;;
4313;SDS011;2170;48.794;9.182;2023-08-20T07:57:11;15.57;;;14.13;;
4313;SDS011;2170;48.794;9.182;2023-08-20T07:59:54;16.73;;;15.03;;
4313;SDS011;2170;48.794;9.182;2023-08-20T08:02:29;14.13;;;12.90;;
4313;SDS011;2170;48.794;9.182;2023-08-20T08:05:08;14.80;;;13.53;;
4313;SDS011;2170;48.794;9.182;2023-08-20T08:07:40;15.30;;;14.20;;
4313;SDS011;2170;48.794;9.182;2023-08-20T08:10:18;15.00;;;13.80;;
4313;SDS011;2170;48.794;9.182;2023-08-20T08:12:55;15.60;;;14.40;;
4313;SDS011;2170;48.794;9.182;2023-08-20T08:15:35;15.87;;;14.00;;
4313;SDS011;2170;48.794;9.182;2023-08-20T08:18:06;15.07;;;13.80;;
4313;SDS011;2170;48.794;9.182;2023-08-20T08:20:39;14.33;;;13.37;;
4313;SDS011;2170;48.794;9.182;2023-08-20T08:23:12;14.17;;;13.07;;
4313;SDS011;2170;48.794;9.182;2023-08-20T08:25:45;14.60;;;13.40;;
4313;SDS011;2170;48.794;9.182;2023-08-20T08:28:25;13.73;;;12.53;;
4313;SDS011;2170;48.794;9.182;2023-08-20T08:30:53;13.40;;;12.27;;
4313;SDS011;2170;48.794;9.182;2023-08-20T08:33:24;13.57;;;12.40;;
4313;SDS011;2170;48.794;9.182;2023-08-20T08:36:01;14.77;;;13.30;;
4313;SDS011;2170;48.794;9.182;2023-08-20T08:38:35;15.23;;;13.73;;
4313;SDS011;2170;48.794;9.182;2023-08-20T08:41:10;13.80;;;12.60;;
4313;SDS011;2170;48.794;9.182;2023-08-20T08:43:45;14.53;;;13.37;;
4313;SDS011;2170;48.794;9.182;2023-08-20T08:46:26;14.53;;;13.40;;
4313;SDS011;2170;48.794;9.182;2023-08-20T08:49:14;12.57;;;11.63;;
4313;SDS011;2170;48.794;9.182;2023-08-20T08:51:52;13.77;;;12.57;;
4313;SDS011;2170;48.794;9.182;2023-08-20T08:54:43;14.13;;;12.80;;
4313;SDS011;2170;48.794;9.182;2023-08-20T08:57:20;14.93;;;13.63;;
4313;SDS011;2170;48.794;9.182;2023-08-20T08:59:52;13.77;;;12.63;;
4313;SDS011;2170;48.794;9.182;2023-08-20T09:02:19;14.20;;;13.10;;
4313;SDS011;2170;48.794;9.182;2023-08-20T09:04:50;14.13;;;12.80;;
4313;SDS011;2170;48.794;9.182;2023-08-20T09:07:22;13.93;;;12.90;;
4313;SDS011;2170;48.794;9.182;2023-08-20T09:09:56;15.17;;;13.47;;
4313;SDS011;2170;48.794;9.182;2023-08-20T09:12:26;13.13;;;12.10;;
4313;SDS011;2170;48.794;9.182;2023-08-20T09:14:55;13.97;;;12.87;;
4313;SDS011;2170;48.794;9.182;2023-08-20T09:17:26;14.30;;;13.13;;
4313;SDS011;2170;48.794;9.182;2023-08-20T09:19:54;12.90;;;12.00;;
4313;SDS011;2170;48.794;9.182;2023-08-20T09:22:23;13.63;;;12.60;;
4313;SDS011;2170;48.794;9.182;2023-08-20T09:25:04;13.73;;;11.93;;
4313;SDS011;2170;48.794;9.182;2023-08-20T09:27:38;12.77;;;11.77;;
4313;SDS011;2170;48.794;9.182;2023-08-20T09:30:10;12.00;;;11.00;;
4313;SDS011;2170;48.794;9.182;2023-08-20T09:33:02;14.10;;;12.33;;
4313;SDS011;2170;48.794;9.182;2023-08-20T09:35:34;11.77;;;10.67;;
4313;SDS011;2170;48.794;9.182;2023-08-20T09:38:06;13.70;;;12.37;;
4313;SDS011;2170;48.794;9.182;2023-08-20T09:40:43;12.80;;;11.70;;
4313;SDS011;2170;48.794;9.182;2023-08-20T09:43:22;12.57;;;11.40;;
4313;SDS011;2170;48.794;9.182;2023-08-20T09:45:58;11.90;;;10.80;;
4313;SDS011;2170;48.794;9.182;2023-08-20T09:48:29;12.07;;;10.97;;
4313;SDS011;2170;48.794;9.182;2023-08-20T09:51:10;10.87;;;9.97;;
4313;SDS011;2170;48.794;9.182;2023-08-20T09:53:40;11.30;;;10.50;;
4313;SDS011;2170;48.794;9.182;2023-08-20T09:56:20;11.60;;;10.80;;
4313;SDS011;2170;48.794;9.182;2023-08-20T09:58:53;12.07;;;10.97;;
4313;SDS011;2170;48.794;9.182;2023-08-20T10:01:24;12.53;;;11.30;;
4313;SDS011;2170;48.794;9.182;2023-08-20T10:03:52;12.10;;;11.30;;
4313;SDS011;2170;48.794;9.182;2023-08-20T10:06:25;12.47;;;11.27;;
4313;SDS011;2170;48.794;9.182;2023-08-20T10:08:54;11.70;;;10.63;;
4313;SDS011;2170;48.794;9.182;2023-08-20T10:11:23;11.87;;;10.70;;
4313;SDS011;2170;48.794;9.182;2023-08-20T10:13:52;11.90;;;10.73;;
4313;SDS011;2170;48.794;9.182;2023-08-20T10:16:21;11.27;;;10.43;;
4313;SDS011;2170;48.794;9.182;2023-08-20T10:18:49;12.23;;;11.33;;
4313;SDS011;2170;48.794;9.182;2023-08-20T10:21:19;13.37;;;12.00;;
4313;SDS011;2170;48.794;9.182;2023-08-20T10:23:53;12.20;;;11.30;;
4313;SDS011;2170;48.794;9.182;2023-08-20T10:26:23;11.17;;;10.27;;
4313;SDS011;2170;48.794;9.182;2023-08-20T10:28:52;11.30;;;10.40;;
4313;SDS011;2170;48.794;9.182;2023-08-20T10:31:58;11.20;;;10.30;;
4313;SDS011;2170;48.794;9.182;2023-08-20T10:34:31;11.83;;;10.77;;
4313;SDS011;2170;48.794;9.182;2023-08-20T10:37:10;11.70;;;10.57;;
4313;SDS011;2170;48.794;9.182;2023-08-20T10:39:39;11.00;;;10.20;;
4313;SDS011;2170;48.794;9.182;2023-08-20T10:45:09;9.80;;;9.10;;
4313;SDS011;2170;48.794;9.182;2023-08-20T10:47:41;9.77;;;9.07;;
4313;SDS011;2170;48.794;9.182;2023-08-20T10:50:15;10.43;;;9.53;;
4313;SDS011;2170;48.794;9.182;2023-08-20T10:52:48;9.80;;;9.00;;
4313;SDS011;2170;48.794;9.182;2023-08-20T10:55:21;10.67;;;9.70;;
4313;SDS011;2170;48.794;9.182;2023-08-20T10:57:55;9.67;;;8.93;;
4313;SDS011;2170;48.794;9.182;2023-08-20T11:00:28;9.73;;;8.90;;
4313;SDS011;2170;48.794;9.182;2023-08-20T11:02:56;10.43;;;9.10;;
4313;SDS011;2170;48.794;9.182;2023-08-20T11:05:25;9.10;;;8.40;;
4313;SDS011;2170;48.794;9.182;2023-08-20T11:07:57;9.03;;;8.43;;
4313;SDS011;2170;48.794;9.182;2023-08-20T11:10:25;9.97;;;9.27;;
4313;SDS011;2170;48.794;9.182;2023-08-20T11:13:08;9.53;;;8.80;;
4313;SDS011;2170;48.794;9.182;2023-08-20T11:15:39;8.90;;;8.23;;
4313;SDS011;2170;48.794;9.182;2023-08-20T11:18:11;10.00;;;9.20;;
4313;SDS011;2170;48.794;9.182;2023-08-20T11:20:43;9.47;;;8.77;;
4313;SDS011;2170;48.794;9.182;2023-08-20T11:23:16;9.67;;;8.87;;
4313;SDS011;2170;48.794;9.182;2023-08-20T11:25:45;8.53;;;7.77;;
4313;SDS011;2170;48.794;9.182;2023-08-20T11:28:18;8.50;;;7.80;;
4313;SDS011;2170;48.794;9.182;2023-08-20T11:30:50;8.30;;;7.60;;
4313;SDS011;2170;48.794;9.182;2023-08-20T11:33:19;9.00;;;8.50;;
4313;SDS011;2170;48.794;9.182;2023-08-20T11:35:49;8.70;;;8.00;;
4313;SDS011;2170;48.794;9.182;2023-08-20T11:38:19;9.00;;;8.30;;
4313;SDS011;2170;48.794;9.182;2023-08-20T11:40:51;8.77;;;8.00;;
4313;SDS011;2170;48.794;9.182;2023-08-20T11:43:24;8.53;;;7.87;;
4313;SDS011;2170;48.794;9.182;2023-08-20T11:45:55;9.53;;;8.73;;
4313;SDS011;2170;48.794;9.182;2023-08-20T11:48:25;9.80;;;9.00;;
4313;SDS011;2170;48.794;9.182;2023-08-20T11:51:04;9.57;;;8.10;;
4313;SDS011;2170;48.794;9.182;2023-08-20T11:53:33;8.87;;;8.10;;
4313;SDS011;2170;48.794;9.182;2023-08-20T11:56:06;8.60;;;7.90;;
4313;SDS011;2170;48.794;9.182;2023-08-20T11:58:51;9.13;;;8.33;;
4313;SDS011;2170;48.794;9.182;2023-08-20T12:01:25;8.57;;;7.87;;
4313;SDS011;2170;48.794;9.182;2023-08-20T12:04:00;8.53;;;7.73;;
4313;SDS011;2170;48.794;9.182;2023-08-20T12:06:35;7.83;;;7.20;;
4313;SDS011;2170;48.794;9.182;2023-08-20T12:09:18;12.20;;;7.80;;
4313;SDS011;2170;48.794;9.182;2023-08-20T12:11:51;7.83;;;7.13;;
4313;SDS011;2170;48.794;9.182;2023-08-20T12:14:23;7.93;;;7.33;;
4313;SDS011;2170;48.794;9.182;2023-08-20T12:16:53;8.00;;;7.40;;
4313;SDS011;2170;48.794;9.182;2023-08-20T12:19:24;7.70;;;6.97;;
4313;SDS011;2170;48.794;9.182;2023-08-20T12:21:55;7.83;;;7.13;;
4313;SDS011;2170;48.794;9.182;2023-08-20T12:24:24;8.03;;;7.47;;
4313;SDS011;2170;48.794;9.182;2023-08-20T12:26:53;7.83;;;7.13;;
4313;SDS011;2170;48.794;9.182;2023-08-20T12:29:27;8.70;;;8.00;;
4313;SDS011;2170;48.794;9.182;2023-08-20T12:32:00;7.27;;;6.77;;
4313;SDS011;2170;48.794;9.182;2023-08-20T12:34:35;8.77;;;7.07;;
4313;SDS011;2170;48.794;9.182;2023-08-20T12:37:03;8.07;;;7.20;;
4313;SDS011;2170;48.794;9.182;2023-08-20T12:39:35;7.37;;;6.87;;
4313;SDS011;2170;48.794;9.182;2023-08-20T12:42:05;7.70;;;7.10;;
4313;SDS011;2170;48.794;9.182;2023-08-20T12:44:37;8.17;;;7.60;;
4313;SDS011;2170;48.794;9.182;2023-08-20T12:47:08;8.43;;;7.63;;
4313;SDS011;2170;48.794;9.182;2023-08-20T12:49:40;8.13;;;7.43;;
4313;SDS011;2170;48.794;9.182;2023-08-20T12:52:14;7.77;;;7.17;;
4313;SDS011;2170;48.794;9.182;2023-08-20T12:54:55;8.30;;;6.73;;
4313;SDS011;2170;48.794;9.182;2023-08-20T12:57:51;8.07;;;7.23;;
4313;SDS011;2170;48.794;9.182;2023-08-20T13:00:42;7.47;;;6.97;;
4313;SDS011;2170;48.794;9.182;2023-08-20T13:03:17;7.40;;;6.80;;
4313;SDS011;2170;48.794;9.182;2023-08-20T13:05:52;6.63;;;6.20;;
4313;SDS011;2170;48.794;9.182;2023-08-20T13:08:36;7.10;;;6.47;;
4313;SDS011;2170;48.794;9.182;2023-08-20T13:11:10;6.67;;;6.07;;
4313;SDS011;2170;48.794;9.182;2023-08-20T13:13:52;7.53;;;6.97;;
4313;SDS011;2170;48.794;9.182;2023-08-20T13:16:30;7.20;;;6.60;;
4313;SDS011;2170;48.794;9.182;2023-08-20T13:19:02;6.57;;;6.17;;
4313;SDS011;2170;48.794;9.182;2023-08-20T13:21:30;7.40;;;6.90;;
4313;SDS011;2170;48.794;9.182;2023-08-20T13:24:04;7.10;;;6.57;;
4313;SDS011;2170;48.794;9.182;2023-08-20T13:27:15;11.17;;;6.90;;
4313;SDS011;2170;48.794;9.182;2023-08-20T13:30:15;6.70;;;6.20;;
4313;SDS011;2170;48.794;9.182;2023-08-20T13:32:53;7.63;;;7.00;;
4313;SDS011;2170;48.794;9.182;2023-08-20T13:35:27;7.70;;;7.10;;
4313;SDS011;2170;48.794;9.182;2023-08-20T13:37:59;7.10;;;6.40;;
4313;SDS011;2170;48.794;9.182;2023-08-20T13:40:32;7.80;;;6.90;;
4313;SDS011;2170;48.794;9.182;2023-08-20T13:43:05;7.20;;;6.50;;
4313;SDS011;2170;48.794;9.182;2023-08-20T13:45:41;7.13;;;6.53;;
4313;SDS011;2170;48.794;9.182;2023-08-20T13:48:14;7.30;;;6.70;;
4313;SDS011;2170;48.794;9.182;2023-08-20T13:50:43;7.97;;;6.60;;
4313;SDS011;2170;48.794;9.182;2023-08-20T13:53:18;7.00;;;6.43;;
4313;SDS011;2170;48.794;9.182;2023-08-20T13:56:14;6.77;;;6.37;;
4313;SDS011;2170;48.794;9.182;2023-08-20T13:58:57;7.27;;;6.67;;
4313;SDS011;2170;48.794;9.182;2023-08-20T14:01:34;8.70;;;7.03;;
4313;SDS011;2170;48.794;9.182;2023-08-20T14:04:33;7.73;;;7.13;;
4313;SDS011;2170;48.794;9.182;2023-08-20T14:07:07;7.13;;;6.60;;
4313;SDS011;2170;48.794;9.182;2023-08-20T14:09:36;8.80;;;7.23;;
4313;SDS011;2170;48.794;9.182;2023-08-20T14:12:13;8.07;;;7.27;;
4313;SDS011;2170;48.794;9.182;2023-08-20T14:14:54;8.07;;;7.47;;
4313;SDS011;2170;48.794;9.182;2023-08-20T14:17:42;8.83;;;7.77;;
4313;SDS011;2170;48.794;9.182;2023-08-20T14:20:20;8.67;;;7.80;;
4313;SDS011;2170;48.794;9.182;2023-08-20T14:22:51;8.23;;;7.43;;
4313;SDS011;2170;48.794;9.182;2023-08-20T14:25:23;8.10;;;7.30;;
4313;SDS011;2170;48.794;9.182;2023-08-20T14:27:51;7.20;;;6.60;;
4313;SDS011;2170;48.794;9.182;2023-08-20T14:30:22;7.87;;;7.27;;
4313;SDS011;2170;48.794;9.182;2023-08-20T14:32:50;8.40;;;7.63;;
4313;SDS011;2170;48.794;9.182;2023-08-20T14:35:18;8.23;;;7.50;;
4313;SDS011;2170;48.794;9.182;2023-08-20T14:37:48;7.47;;;7.03;;
4313;SDS011;2170;48.794;9.182;2023-08-20T14:40:22;8.00;;;7.20;;
4313;SDS011;2170;48.794;9.182;2023-08-20T14:43:02;11.43;;;7.40;;
4313;SDS011;2170;48.794;9.182;2023-08-20T14:45:30;7.70;;;7.20;;
4313;SDS011;2170;48.794;9.182;2023-08-20T14:47:59;8.23;;;7.63;;
4313;SDS011;2170;48.794;9.182;2023-08-20T14:50:29;11.47;;;7.50;;
4313;SDS011;2170;48.794;9.182;2023-08-20T14:52:58;7.60;;;7.00;;
4313;SDS011;2170;48.794;9.182;2023-08-20T14:55:29;7.60;;;7.10;;
4313;SDS011;2170;48.794;9.182;2023-08-20T15:01:23;8.37;;;7.63;;
4313;SDS011;2170;48.794;9.182;2023-08-20T15:03:59;7.87;;;7.13;;
4313;SDS011;2170;48.794;9.182;2023-08-20T15:06:53;7.70;;;7.10;;
4313;SDS011;2170;48.794;9.182;2023-08-20T15:09:26;7.27;;;6.67;;
4313;SDS011;2170;48.794;9.182;2023-08-20T15:11:59;6.73;;;6.23;;
4313;SDS011;2170;48.794;9.182;2023-08-20T15:14:33;7.13;;;6.50;;
4313;SDS011;2170;48.794;9.182;2023-08-20T15:17:12;7.13;;;6.53;;
4313;SDS011;2170;48.794;9.182;2023-08-20T15:19:41;7.83;;;6.63;;
4313;SDS011;2170;48.794;9.182;2023-08-20T15:22:10;7.13;;;6.50;;
4313;SDS011;2170;48.794;9.182;2023-08-20T15:24:40;6.53;;;5.80;;
4313;SDS011;2170;48.794;9.182;2023-08-20T15:27:18;6.53;;;5.97;;
4313;SDS011;2170;48.794;9.182;2023-08-20T15:29:49;6.10;;;5.70;;
4313;SDS011;2170;48.794;9.182;2023-08-20T15:32:20;6.80;;;6.23;;
4313;SDS011;2170;48.794;9.182;2023-08-20T15:34:52;9.23;;;6.00;;
4313;SDS011;2170;48.794;9.182;2023-08-20T15:37:25;6.33;;;5.73;;
4313;SDS011;2170;48.794;9.182;2023-08-20T15:39:57;7.83;;;5.70;;
4313;SDS011;2170;48.794;9.182;2023-08-20T15:42:26;6.00;;;5.50;;
4313;SDS011;2170;48.794;9.182;2023-08-20T15:44:59;6.60;;;6.10;;
4313;SDS011;2170;48.794;9.182;2023-08-20T15:47:33;6.40;;;5.90;;
4313;SDS011;2170;48.794;9.182;2023-08-20T15:50:10;6.13;;;5.70;;
4313;SDS011;2170;48.794;9.182;2023-08-20T15:52:41;7.87;;;6.40;;
4313;SDS011;2170;48.794;9.182;2023-08-20T15:55:14;6.70;;;6.30;;
4313;SDS011;2170;48.794;9.182;2023-08-20T15:57:42;9.93;;;6.77;;
4313;SDS011;2170;48.794;9.182;2023-08-20T16:00:11;6.37;;;5.70;;
4313;SDS011;2170;48.794;9.182;2023-08-20T16:02:41;6.40;;;5.80;;